Me — V7E16 — position and weather

sailwx.info

Track history (hours):
 
Tides and Currents Weather Stations Pressure Air Temp Water Temp Dewpoint Dewpoint Depression Visibility Wind Speed Wind Dir Waves Ship Positions

Me

Last reported at 2017-Sep-07 22:30 UTC. Time now 2017-Nov-21 21:19 UTC.
Position N 25°34' W 080°04'.
Warning: this ship's position is months out of date.

; draft 2.5 m.

Type: Pleasure craft. MMSI: 538070984.

Date/timePositionNaut miles runAvg speedWind from/ knotsBaromVisibWave heightAir tempDewpointWater temp
2017-Sep-07 22:30N 25°34' W 080°04'5 9.4
2017-Sep-07 22:00N 25°39' W 080°03'5 9.3
2017-Sep-07 21:30N 25°43' W 080°04'4 7.5
2017-Sep-07 21:01N 25°47' W 080°04'5 9.0
2017-Sep-07 20:30N 25°52' W 080°04'5 9.7
2017-Sep-07 20:00N 25°57' W 080°04'511.0
2017-Sep-07 19:31N 26°02' W 080°04'4 7.5
2017-Sep-07 19:00N 26°06' W 080°06'3 5.3
2017-Sep-07 18:28N 26°03' W 080°07'3 6.0
2017-Sep-07 18:01N 26°00' W 080°07'3 5.3
2017-Sep-07 17:30N 25°58' W 080°07'0 0.5
2017-Sep-07 17:00N 25°58' W 080°08'0 0.0
2017-Sep-07 16:30N 25°58' W 080°08'0 0.0
2017-Sep-07 16:00N 25°58' W 080°08'0 0.0
2017-Sep-07 14:51N 25°58' W 080°08'0 0.0
2017-Sep-07 14:21N 25°58' W 080°08'0 0.0
2017-Sep-07 13:39N 25°58' W 080°08'0 0.0
2017-Sep-07 13:24N 25°58' W 080°08'0 0.0
2017-Sep-07 12:51N 25°58' W 080°08'0 0.0
2017-Sep-07 12:24N 25°58' W 080°08'0 0.0
2017-Sep-07 11:54N 25°58' W 080°08'0 0.0
2017-Sep-07 11:27N 25°58' W 080°08'0 0.0
2017-Sep-07 10:57N 25°58' W 080°08'0 0.0
2017-Sep-07 10:27N 25°58' W 080°08'0 0.0
2017-Sep-07 09:57N 25°58' W 080°08'0 0.0
2017-Sep-07 09:27N 25°58' W 080°08'0 0.0
2017-Sep-07 08:57N 25°58' W 080°08'0 0.0
2017-Sep-07 08:30N 25°58' W 080°08'0 0.0
2017-Sep-07 08:00N 25°58' W 080°08'0 0.0
2017-Sep-07 07:30N 25°58' W 080°08'0 0.0
2017-Sep-07 07:00N 25°58' W 080°08'0 0.0
2017-Sep-07 06:30N 25°58' W 080°08'0 0.0
2017-Sep-07 06:00N 25°58' W 080°08'0 0.0
2017-Sep-07 05:27N 25°58' W 080°08'0 0.0
2017-Sep-07 05:00N 25°58' W 080°08'0 0.0
2017-Sep-07 04:30N 25°58' W 080°08'0 0.0
2017-Sep-07 04:00N 25°58' W 080°08'0 0.0
2017-Sep-07 03:30N 25°58' W 080°08'0 0.0
2017-Sep-07 03:00N 25°58' W 080°08'0 0.0
2017-Sep-07 02:30N 25°58' W 080°08'0 0.0
2017-Sep-07 02:00N 25°58' W 080°08'0 0.0
2017-Sep-07 01:30N 25°58' W 080°08'0 0.0
2017-Sep-07 00:51N 25°58' W 080°08'0 0.0
2017-Sep-07 00:21N 25°58' W 080°08'0 0.0
2017-Sep-06 23:54N 25°58' W 080°08'0 0.0
2017-Sep-06 23:24N 25°58' W 080°08'0 0.0
2017-Sep-06 22:54N 25°58' W 080°08'0 0.0
2017-Sep-06 22:24N 25°58' W 080°08'0 0.1
2017-Sep-06 21:54N 25°58' W 080°08'0 0.0
2017-Sep-06 21:24N 25°58' W 080°08'0 0.0
2017-Sep-06 20:57N 25°58' W 080°08'0 0.0
2017-Sep-06 20:27N 25°58' W 080°08'0 0.1
2017-Sep-06 19:57N 25°58' W 080°08'0 0.0
2017-Sep-06 19:27N 25°58' W 080°08'0 0.0
2017-Sep-06 18:57N 25°58' W 080°08'0 0.0
2017-Sep-06 18:27N 25°58' W 080°08'0 0.0
2017-Sep-06 18:00N 25°58' W 080°08'0 0.0
2017-Sep-06 17:30N 25°58' W 080°08'0 0.0
2017-Sep-06 17:00N 25°58' W 080°08'0 0.0
2017-Sep-06 16:27N 25°58' W 080°08'0 0.0
2017-Sep-06 16:00N 25°58' W 080°08'0 0.0
2017-Sep-06 15:30N 25°58' W 080°08'0 0.0
2017-Sep-06 15:00N 25°58' W 080°08'0 0.0
2017-Sep-06 14:30N 25°58' W 080°08'0 0.0
2017-Sep-06 13:48N 25°58' W 080°08'0 0.0
2017-Sep-06 13:30N 25°58' W 080°08'0 0.0
2017-Sep-06 13:00N 25°58' W 080°08'0 0.0
2017-Sep-06 12:21N 25°58' W 080°08'0 0.0
2017-Sep-06 11:18N 25°58' W 080°08'0 0.0
2017-Sep-06 10:51N 25°58' W 080°08'0 0.0
2017-Sep-06 10:24N 25°58' W 080°08'0 0.0
2017-Sep-06 09:54N 25°58' W 080°08'0 0.0
2017-Sep-06 09:21N 25°58' W 080°08'0 0.0
2017-Sep-06 08:54N 25°58' W 080°08'0 0.0
2017-Sep-06 08:24N 25°58' W 080°08'0 0.0
2017-Sep-06 07:54N 25°58' W 080°08'0 0.0
2017-Sep-06 07:21N 25°58' W 080°08'0 0.0
2017-Sep-06 06:57N 25°58' W 080°08'0 0.0
2017-Sep-06 06:27N 25°58' W 080°08'0 0.0
2017-Sep-06 05:57N 25°58' W 080°08'0 0.0
2017-Sep-06 05:27N 25°58' W 080°08'0 0.0
2017-Sep-06 05:00N 25°58' W 080°08'0 0.0
2017-Sep-06 04:27N 25°58' W 080°08'0 0.0
2017-Sep-06 04:00N 25°58' W 080°08'0 0.0
2017-Sep-06 03:30N 25°58' W 080°08'0 0.0
2017-Sep-06 03:00N 25°58' W 080°08'0 0.0
2017-Sep-06 02:27N 25°58' W 080°08'0 0.0
2017-Sep-06 02:00N 25°58' W 080°08'0 0.0
2017-Sep-06 01:30N 25°58' W 080°08'0 0.0
2017-Sep-06 00:57N 25°58' W 080°08'0 0.0
2017-Sep-06 00:30N 25°58' W 080°08'0 0.0
2017-Sep-06 00:00N 25°58' W 080°08'1 2.2
2017-Sep-05 23:31N 25°59' W 080°07'2 4.8
2017-Sep-05 23:00N 26°01' W 080°07'1 2.3
2017-Sep-05 22:29N 26°02' W 080°07'2 3.2
2017-Sep-05 22:00N 26°04' W 080°07'2 3.4
2017-Sep-05 21:30N 26°05' W 080°07'4 7.6
2017-Sep-05 21:00N 26°02' W 080°05'510.9
2017-Sep-05 20:30N 25°57' W 080°05'5 9.7
2017-Sep-05 20:00N 25°52' W 080°06'611.8
2017-Sep-05 19:30N 25°46' W 080°06'4 7.2
2017-Sep-05 19:00N 25°47' W 080°10'1 2.2
2017-Sep-05 18:29N 25°47' W 080°11'0 0.0
2017-Sep-05 17:56N 25°47' W 080°11'0 0.0
2017-Sep-05 17:29N 25°47' W 080°11'0 0.0
2017-Sep-05 16:56N 25°47' W 080°11'0 0.0
2017-Sep-05 16:29N 25°47' W 080°11'0 0.0
2017-Sep-05 15:56N 25°47' W 080°11'0 0.0
2017-Sep-05 15:29N 25°47' W 080°11'0 0.0
2017-Sep-05 14:56N 25°47' W 080°11'0 0.0
2017-Sep-05 14:29N 25°47' W 080°11'0 0.0
2017-Sep-05 13:59N 25°47' W 080°11'0 0.0
2017-Sep-05 13:29N 25°47' W 080°11'0 0.0
2017-Sep-05 12:59N 25°47' W 080°11'0 0.0
2017-Sep-05 12:29N 25°47' W 080°11'0 0.0
2017-Sep-05 11:59N 25°47' W 080°11'0 0.0
2017-Sep-05 11:29N 25°47' W 080°11'0 0.0
2017-Sep-05 10:59N 25°47' W 080°11'0 0.0
2017-Sep-05 10:29N 25°47' W 080°11'0 0.0
2017-Sep-05 09:59N 25°47' W 080°11'0 0.0
2017-Sep-05 09:29N 25°47' W 080°11'0 0.0
2017-Sep-05 08:59N 25°47' W 080°11'0 0.0
2017-Sep-05 08:29N 25°47' W 080°11'0 0.0
2017-Sep-05 07:59N 25°47' W 080°11'0 0.0
2017-Sep-05 07:23N 25°47' W 080°11'0 0.0
2017-Sep-05 06:59N 25°47' W 080°11'0 0.0
2017-Sep-05 06:26N 25°47' W 080°11'0 0.0
2017-Sep-05 05:59N 25°47' W 080°11'0 0.0
2017-Sep-05 05:29N 25°47' W 080°11'0 0.0
2017-Sep-05 04:59N 25°47' W 080°11'0 0.0
2017-Sep-05 04:29N 25°47' W 080°11'0 0.0
2017-Sep-05 03:53N 25°47' W 080°11'0 0.0
2017-Sep-05 03:23N 25°47' W 080°11'0 0.0
2017-Sep-05 02:59N 25°47' W 080°11'0 0.0
2017-Sep-05 02:26N 25°47' W 080°11'0 0.0
2017-Sep-05 01:56N 25°47' W 080°11'0 0.0
2017-Sep-05 01:29N 25°47' W 080°11'0 0.0
2017-Sep-05 00:56N 25°47' W 080°11'0 0.0
2017-Sep-05 00:29N 25°47' W 080°11'0 0.0
2017-Sep-04 23:59N 25°47' W 080°11'0 0.0
2017-Sep-04 23:29N 25°47' W 080°11'0 0.0
2017-Sep-04 22:59N 25°47' W 080°11'0 0.0
2017-Sep-04 22:29N 25°47' W 080°11'0 0.0
2017-Sep-04 21:59N 25°47' W 080°11'0 0.0
2017-Sep-04 21:29N 25°47' W 080°11'0 0.0
2017-Sep-04 20:59N 25°47' W 080°11'0 0.0
2017-Sep-04 20:29N 25°47' W 080°11'0 0.0
2017-Sep-04 19:59N 25°47' W 080°11'0 0.0
2017-Sep-04 19:26N 25°47' W 080°11'0 0.0
2017-Sep-04 18:59N 25°47' W 080°11'0 0.0
2017-Sep-04 18:29N 25°47' W 080°11'0 0.0
2017-Sep-04 17:59N 25°47' W 080°11'0 0.0
2017-Sep-04 17:26N 25°47' W 080°11'0 0.0
2017-Sep-04 16:50N 25°47' W 080°11'0 0.0
2017-Sep-04 16:26N 25°47' W 080°11'0 0.0
2017-Sep-04 15:59N 25°47' W 080°11'0 0.0
2017-Sep-04 15:29N 25°47' W 080°11'0 0.0
2017-Sep-04 14:56N 25°47' W 080°11'0 0.0
2017-Sep-04 14:26N 25°47' W 080°11'0 0.0
2017-Sep-04 13:53N 25°47' W 080°11'0 0.0
2017-Sep-04 13:26N 25°47' W 080°11'0 0.0
2017-Sep-04 12:56N 25°47' W 080°11'0 0.0
2017-Sep-04 12:26N 25°47' W 080°11'0 0.0
2017-Sep-04 11:59N 25°47' W 080°11'0 0.0
2017-Sep-04 11:29N 25°47' W 080°11'0 0.0
2017-Sep-04 10:59N 25°47' W 080°11'0 0.0
2017-Sep-04 10:29N 25°47' W 080°11'0 0.0
2017-Sep-04 09:59N 25°47' W 080°11'0 0.0
2017-Sep-04 09:29N 25°47' W 080°11'0 0.0
2017-Sep-04 08:59N 25°47' W 080°11'0 0.0
2017-Sep-04 08:29N 25°47' W 080°11'0 0.0
2017-Sep-04 07:59N 25°47' W 080°11'0 0.0
2017-Sep-04 07:29N 25°47' W 080°11'0 0.0
2017-Sep-04 06:59N 25°47' W 080°11'0 0.0
2017-Sep-04 06:29N 25°47' W 080°11'0 0.0
2017-Sep-04 05:53N 25°47' W 080°11'0 0.0
2017-Sep-04 05:29N 25°47' W 080°11'0 0.0
2017-Sep-04 04:59N 25°47' W 080°11'0 0.0
2017-Sep-04 04:29N 25°47' W 080°11'0 0.0
2017-Sep-04 03:59N 25°47' W 080°11'0 0.0
2017-Sep-04 03:29N 25°47' W 080°11'0 0.0
2017-Sep-04 02:53N 25°47' W 080°11'0 0.0
2017-Sep-04 02:26N 25°47' W 080°11'0 0.0
2017-Sep-04 01:59N 25°47' W 080°11'0 0.0
2017-Sep-04 01:29N 25°47' W 080°11'0 0.0
2017-Sep-04 00:56N 25°47' W 080°11'0 0.0
2017-Sep-04 00:26N 25°47' W 080°11'0 0.0
2017-Sep-03 23:59N 25°47' W 080°11'0 0.0
2017-Sep-03 23:29N 25°47' W 080°11'0 0.0
2017-Sep-03 22:56N 25°47' W 080°11'0 0.0
2017-Sep-03 22:29N 25°47' W 080°11'0 0.0
2017-Sep-03 21:59N 25°47' W 080°11'0 0.0
2017-Sep-03 21:29N 25°47' W 080°11'0 0.0
2017-Sep-03 20:59N 25°47' W 080°11'0 0.0
2017-Sep-03 20:29N 25°47' W 080°11'0 0.0
2017-Sep-03 19:59N 25°47' W 080°11'0 0.0
2017-Sep-03 19:29N 25°47' W 080°11'0 0.0
2017-Sep-03 18:59N 25°47' W 080°11'0 0.0
2017-Sep-03 18:29N 25°47' W 080°11'0 0.0
2017-Sep-03 17:59N 25°47' W 080°11'0 0.0
2017-Sep-03 17:29N 25°47' W 080°11'0 0.0
2017-Sep-03 16:59N 25°47' W 080°11'0 0.0
2017-Sep-03 16:29N 25°47' W 080°11'0 0.0
2017-Sep-03 15:59N 25°47' W 080°11'0 0.0
2017-Sep-03 15:29N 25°47' W 080°11'0 0.0
2017-Sep-03 14:59N 25°47' W 080°11'0 0.0
2017-Sep-03 13:56N 25°47' W 080°11'0 0.0
2017-Sep-03 13:26N 25°47' W 080°11'0 0.0
2017-Sep-03 12:59N 25°47' W 080°11'0 0.0
2017-Sep-03 12:26N 25°47' W 080°11'0 0.0
2017-Sep-03 11:56N 25°47' W 080°11'0 0.0
2017-Sep-03 11:26N 25°47' W 080°11'0 0.0
2017-Sep-03 10:59N 25°47' W 080°11'0 0.0
2017-Sep-03 10:29N 25°47' W 080°11'0 0.0
2017-Sep-03 09:53N 25°47' W 080°11'0 0.0
2017-Sep-03 09:29N 25°47' W 080°11'0 0.0
2017-Sep-03 08:59N 25°47' W 080°11'0 0.0
2017-Sep-03 08:26N 25°47' W 080°11'0 0.0
2017-Sep-03 07:56N 25°47' W 080°11'0 0.0
2017-Sep-03 07:26N 25°47' W 080°11'0 0.0
2017-Sep-03 06:59N 25°47' W 080°11'0 0.0
2017-Sep-03 06:29N 25°47' W 080°11'0 0.0
2017-Sep-03 05:59N 25°47' W 080°11'0 0.0
2017-Sep-03 05:29N 25°47' W 080°11'0 0.0
2017-Sep-03 04:59N 25°47' W 080°11'0 0.0
2017-Sep-03 04:29N 25°47' W 080°11'0 0.0
2017-Sep-03 03:59N 25°47' W 080°11'0 0.0
2017-Sep-03 03:29N 25°47' W 080°11'0 0.0
2017-Sep-03 02:59N 25°47' W 080°11'0 0.0
2017-Sep-03 02:29N 25°47' W 080°11'0 0.0
2017-Sep-03 01:59N 25°47' W 080°11'0 0.0
2017-Sep-03 01:29N 25°47' W 080°11'0 0.0
2017-Sep-03 00:59N 25°47' W 080°11'0 0.0
2017-Sep-03 00:29N 25°47' W 080°11'0 0.0
2017-Sep-02 23:56N 25°47' W 080°11'0 0.0
2017-Sep-02 23:23N 25°47' W 080°11'0 0.0
2017-Sep-02 22:56N 25°47' W 080°11'0 0.0
2017-Sep-02 22:23N 25°47' W 080°11'0 0.0
2017-Sep-02 21:59N 25°47' W 080°11'0 0.0
2017-Sep-02 21:26N 25°47' W 080°11'0 0.0
2017-Sep-02 20:56N 25°47' W 080°11'0 0.0
2017-Sep-02 20:26N 25°47' W 080°11'0 0.0
2017-Sep-02 19:56N 25°47' W 080°11'0 0.0
2017-Sep-02 19:29N 25°47' W 080°11'0 0.0
2017-Sep-02 18:56N 25°47' W 080°11'0 0.0
2017-Sep-02 18:29N 25°47' W 080°11'0 0.0
2017-Sep-02 17:56N 25°47' W 080°11'0 0.0
2017-Sep-02 17:26N 25°47' W 080°11'0 0.0
2017-Sep-02 16:59N 25°47' W 080°11'0 0.0
2017-Sep-02 16:29N 25°47' W 080°11'0 0.0
2017-Sep-02 15:59N 25°47' W 080°11'0 0.0
2017-Sep-02 15:29N 25°47' W 080°11'0 0.0
2017-Sep-02 14:56N 25°47' W 080°11'0 0.0
2017-Sep-02 14:29N 25°47' W 080°11'0 0.0
2017-Sep-02 13:59N 25°47' W 080°11'0 0.0
2017-Sep-02 13:29N 25°47' W 080°11'0 0.0
2017-Sep-02 12:59N 25°47' W 080°11'0 0.0
2017-Sep-02 12:29N 25°47' W 080°11'0 0.0
2017-Sep-02 11:59N 25°47' W 080°11'0 0.0
2017-Sep-02 11:29N 25°47' W 080°11'0 0.0
2017-Sep-02 10:59N 25°47' W 080°11'0 0.0
2017-Sep-02 10:29N 25°47' W 080°11'0 0.0
2017-Sep-02 09:59N 25°47' W 080°11'0 0.0
2017-Sep-02 09:26N 25°47' W 080°11'0 0.0
2017-Sep-02 08:56N 25°47' W 080°11'0 0.0
2017-Sep-02 08:29N 25°47' W 080°11'0 0.0
2017-Sep-02 07:56N 25°47' W 080°11'0 0.0
2017-Sep-02 07:29N 25°47' W 080°11'0 0.0
2017-Sep-02 06:59N 25°47' W 080°11'0 0.0
2017-Sep-02 06:26N 25°47' W 080°11'0 0.0
2017-Sep-02 05:59N 25°47' W 080°11'0 0.0
2017-Sep-02 05:26N 25°47' W 080°11'0 0.0
2017-Sep-02 04:56N 25°47' W 080°11'0 0.0
2017-Sep-02 04:26N 25°47' W 080°11'0 0.0
2017-Sep-02 03:56N 25°47' W 080°11'0 0.0
2017-Sep-02 03:29N 25°47' W 080°11'0 0.0
2017-Sep-02 02:56N 25°47' W 080°11'0 0.0
2017-Sep-02 02:29N 25°47' W 080°11'0 0.0
2017-Sep-02 01:59N 25°47' W 080°11'0 0.0
2017-Sep-02 01:29N 25°47' W 080°11'0 0.0
2017-Sep-02 00:59N 25°47' W 080°11'0 0.0
2017-Sep-02 00:29N 25°47' W 080°11'0 0.0
2017-Sep-01 23:59N 25°47' W 080°11'0 0.0
2017-Sep-01 23:29N 25°47' W 080°11'0 0.0
2017-Sep-01 22:59N 25°47' W 080°11'0 0.0
2017-Sep-01 22:29N 25°47' W 080°11'0 0.0
2017-Sep-01 21:59N 25°47' W 080°11'0 0.0
2017-Sep-01 21:29N 25°47' W 080°11'0 0.0
2017-Sep-01 20:56N 25°47' W 080°11'0 0.0
2017-Sep-01 20:29N 25°47' W 080°11'0 0.0
2017-Sep-01 19:56N 25°47' W 080°11'0 0.0
2017-Sep-01 19:29N 25°47' W 080°11'0 0.0
2017-Sep-01 18:56N 25°47' W 080°11'0 0.0
2017-Sep-01 18:29N 25°47' W 080°11'0 0.0
2017-Sep-01 17:59N 25°47' W 080°11'0 0.0
2017-Sep-01 17:29N 25°47' W 080°11'0 0.0
2017-Sep-01 16:59N 25°47' W 080°11'0 0.0
2017-Sep-01 16:29N 25°47' W 080°11'0 0.0
2017-Sep-01 15:59N 25°47' W 080°11'0 0.0
2017-Sep-01 15:26N 25°47' W 080°11'0 0.0
2017-Sep-01 14:59N 25°47' W 080°11'0 0.0
2017-Sep-01 14:26N 25°47' W 080°11'0 0.0
2017-Sep-01 13:59N 25°47' W 080°11'0 0.0
2017-Sep-01 13:29N 25°47' W 080°11'0 0.0
2017-Sep-01 12:56N 25°47' W 080°11'0 0.0
2017-Sep-01 12:29N 25°47' W 080°11'0 0.0
2017-Sep-01 11:59N 25°47' W 080°11'0 0.0
2017-Sep-01 11:29N 25°47' W 080°11'0 0.0
2017-Sep-01 10:59N 25°47' W 080°11'0 0.0
2017-Sep-01 10:29N 25°47' W 080°11'0 0.0
2017-Sep-01 09:59N 25°47' W 080°11'0 0.0
2017-Sep-01 09:29N 25°47' W 080°11'0 0.0
2017-Sep-01 08:59N 25°47' W 080°11'0 0.0
2017-Sep-01 08:29N 25°47' W 080°11'0 0.0
2017-Sep-01 07:59N 25°47' W 080°11'0 0.0
2017-Sep-01 07:23N 25°47' W 080°11'0 0.0
2017-Sep-01 06:59N 25°47' W 080°11'0 0.0
2017-Sep-01 06:26N 25°47' W 080°11'0 0.0
2017-Sep-01 05:59N 25°47' W 080°11'0 0.0
2017-Sep-01 05:20N 25°47' W 080°11'0 0.0
2017-Sep-01 04:56N 25°47' W 080°11'0 0.0
2017-Sep-01 04:23N 25°47' W 080°11'0 0.0
2017-Sep-01 03:56N 25°47' W 080°11'0 0.0
2017-Sep-01 03:29N 25°47' W 080°11'0 0.0
2017-Sep-01 02:50N 25°47' W 080°11'0 0.0
2017-Sep-01 02:26N 25°47' W 080°11'0 0.0
2017-Sep-01 01:56N 25°47' W 080°11'0 0.0
2017-Sep-01 01:29N 25°47' W 080°11'0 0.0
2017-Sep-01 00:59N 25°47' W 080°11'0 0.0
2017-Sep-01 00:23N 25°47' W 080°11'0 0.0
2017-Aug-31 23:59N 25°47' W 080°11'0 0.0
2017-Aug-31 23:29N 25°47' W 080°11'0 0.0
2017-Aug-31 22:59N 25°47' W 080°11'0 0.0
2017-Aug-31 22:29N 25°47' W 080°11'0 0.0
2017-Aug-31 21:59N 25°47' W 080°11'0 0.0
2017-Aug-31 21:29N 25°47' W 080°11'0 0.0
2017-Aug-31 20:59N 25°47' W 080°11'0 0.0
2017-Aug-31 20:29N 25°47' W 080°11'0 0.0
2017-Aug-31 19:59N 25°47' W 080°11'0 0.0
2017-Aug-31 19:29N 25°47' W 080°11'0 0.0
2017-Aug-31 18:59N 25°47' W 080°11'0 0.0
2017-Aug-31 18:29N 25°47' W 080°11'0 0.0
2017-Aug-31 17:59N 25°47' W 080°11'0 0.0
2017-Aug-31 17:29N 25°47' W 080°11'0 0.0
2017-Aug-31 16:59N 25°47' W 080°11'0 0.0
2017-Aug-31 16:29N 25°47' W 080°11'0 0.0
2017-Aug-31 15:56N 25°47' W 080°11'0 0.0
2017-Aug-31 15:26N 25°47' W 080°11'0 0.0
2017-Aug-31 14:59N 25°47' W 080°11'0 0.0
2017-Aug-31 14:26N 25°47' W 080°11'0 0.0
2017-Aug-31 13:53N 25°47' W 080°11'0 0.0
2017-Aug-31 13:29N 25°47' W 080°11'0 0.0
2017-Aug-31 12:59N 25°47' W 080°11'0 0.0
2017-Aug-31 12:29N 25°47' W 080°11'0 0.0
2017-Aug-31 11:56N 25°47' W 080°11'0 0.0
2017-Aug-31 11:26N 25°47' W 080°11'0 0.0
2017-Aug-31 10:59N 25°47' W 080°11'0 0.0
2017-Aug-31 10:26N 25°47' W 080°11'0 0.0
2017-Aug-31 09:59N 25°47' W 080°11'0 0.0
2017-Aug-31 09:29N 25°47' W 080°11'0 0.0
2017-Aug-31 08:59N 25°47' W 080°11'0 0.0
2017-Aug-31 08:29N 25°47' W 080°11'0 0.0
2017-Aug-31 07:59N 25°47' W 080°11'0 0.0
2017-Aug-31 07:29N 25°47' W 080°11'0 0.0
2017-Aug-31 06:59N 25°47' W 080°11'0 0.0
2017-Aug-31 06:26N 25°47' W 080°11'0 0.0
2017-Aug-31 05:59N 25°47' W 080°11'0 0.0
2017-Aug-31 05:29N 25°47' W 080°11'0 0.0
2017-Aug-31 04:59N 25°47' W 080°11'0 0.0
2017-Aug-31 04:29N 25°47' W 080°11'0 0.0
2017-Aug-31 03:59N 25°47' W 080°11'0 0.0
2017-Aug-31 03:29N 25°47' W 080°11'0 0.0
2017-Aug-31 02:59N 25°47' W 080°11'0 0.0
2017-Aug-31 02:29N 25°47' W 080°11'0 0.0
2017-Aug-31 01:59N 25°47' W 080°11'0 0.0
2017-Aug-31 01:23N 25°47' W 080°11'0 0.0
2017-Aug-31 00:59N 25°47' W 080°11'0 0.0
2017-Aug-31 00:29N 25°47' W 080°11'0 0.0
2017-Aug-30 23:59N 25°47' W 080°11'0 0.0
2017-Aug-30 23:29N 25°47' W 080°11'0 0.0
2017-Aug-30 22:53N 25°47' W 080°11'0 0.0
2017-Aug-30 22:29N 25°47' W 080°11'0 0.0
2017-Aug-30 21:56N 25°47' W 080°11'0 0.0
2017-Aug-30 21:29N 25°47' W 080°11'0 0.0
2017-Aug-30 20:59N 25°47' W 080°11'0 0.0
2017-Aug-30 20:29N 25°47' W 080°11'0 0.0
2017-Aug-30 19:59N 25°47' W 080°11'0 0.0
2017-Aug-30 19:29N 25°47' W 080°11'0 0.0
2017-Aug-30 18:59N 25°47' W 080°11'0 0.0
2017-Aug-30 18:29N 25°47' W 080°11'0 0.0
2017-Aug-30 17:59N 25°47' W 080°11'0 0.0
2017-Aug-30 17:29N 25°47' W 080°11'0 0.0
2017-Aug-30 16:59N 25°47' W 080°11'0 0.0
2017-Aug-30 16:26N 25°47' W 080°11'0 0.0
2017-Aug-30 15:56N 25°47' W 080°11'0 0.0
2017-Aug-30 15:29N 25°47' W 080°11'0 0.0
2017-Aug-30 14:59N 25°47' W 080°11'0 0.0
2017-Aug-30 14:29N 25°47' W 080°11'0 0.0
2017-Aug-30 13:59N 25°47' W 080°11'0 0.0
2017-Aug-30 13:29N 25°47' W 080°11'0 0.0
2017-Aug-30 12:59N 25°47' W 080°11'0 0.0
2017-Aug-30 12:29N 25°47' W 080°11'0 0.0
2017-Aug-30 11:50N 25°47' W 080°11'0 0.0
2017-Aug-30 11:23N 25°47' W 080°11'0 0.0
2017-Aug-30 10:53N 25°47' W 080°11'0 0.0
2017-Aug-30 10:26N 25°47' W 080°11'0 0.0
2017-Aug-30 09:59N 25°47' W 080°11'0 0.0
2017-Aug-30 09:29N 25°47' W 080°11'0 0.0
2017-Aug-30 08:59N 25°47' W 080°11'0 0.0
2017-Aug-30 08:29N 25°47' W 080°11'0 0.0
2017-Aug-30 07:59N 25°47' W 080°11'0 0.0
2017-Aug-30 07:29N 25°47' W 080°11'0 0.0
2017-Aug-30 06:59N 25°47' W 080°11'0 0.0
2017-Aug-30 06:26N 25°47' W 080°11'0 0.0
2017-Aug-30 05:59N 25°47' W 080°11'0 0.0
2017-Aug-30 05:29N 25°47' W 080°11'0 0.0
2017-Aug-30 04:59N 25°47' W 080°11'0 0.0
2017-Aug-30 04:26N 25°47' W 080°11'0 0.0
2017-Aug-30 03:56N 25°47' W 080°11'0 0.0
2017-Aug-30 03:29N 25°47' W 080°11'0 0.0
2017-Aug-30 02:56N 25°47' W 080°11'0 0.0
2017-Aug-30 02:29N 25°47' W 080°11'0 0.0
2017-Aug-30 01:59N 25°47' W 080°11'0 0.0
2017-Aug-30 01:29N 25°47' W 080°11'0 0.0
2017-Aug-30 00:59N 25°47' W 080°11'0 0.0
2017-Aug-30 00:29N 25°47' W 080°11'0 0.0
2017-Aug-29 23:59N 25°47' W 080°11'0 0.0
2017-Aug-29 23:29N 25°47' W 080°11'0 0.0
2017-Aug-29 22:59N 25°47' W 080°11'0 0.0
2017-Aug-29 22:29N 25°47' W 080°11'0 0.0
2017-Aug-29 21:50N 25°47' W 080°11'0 0.0
2017-Aug-29 21:29N 25°47' W 080°11'0 0.0
2017-Aug-29 20:59N 25°47' W 080°11'0 0.0
2017-Aug-29 20:26N 25°47' W 080°11'0 0.0
2017-Aug-29 19:53N 25°47' W 080°11'0 0.0
2017-Aug-29 19:29N 25°47' W 080°11'0 0.0
2017-Aug-29 18:59N 25°47' W 080°11'0 0.0
2017-Aug-29 18:29N 25°47' W 080°11'0 0.0
2017-Aug-29 17:56N 25°47' W 080°11'0 0.0
2017-Aug-29 17:26N 25°47' W 080°11'0 0.0
2017-Aug-29 16:59N 25°47' W 080°11'0 0.0
2017-Aug-29 16:29N 25°47' W 080°11'0 0.0
2017-Aug-29 15:59N 25°47' W 080°11'0 0.0
2017-Aug-29 15:29N 25°47' W 080°11'0 0.0
2017-Aug-29 14:56N 25°47' W 080°11'0 0.0
2017-Aug-29 14:26N 25°47' W 080°11'0 0.0
2017-Aug-29 13:59N 25°47' W 080°11'0 0.0
2017-Aug-29 13:29N 25°47' W 080°11'0 0.0
2017-Aug-29 12:59N 25°47' W 080°11'0 0.0
2017-Aug-29 12:29N 25°47' W 080°11'0 0.0
2017-Aug-29 11:59N 25°47' W 080°11'0 0.0
2017-Aug-29 11:29N 25°47' W 080°11'0 0.0
2017-Aug-29 10:59N 25°47' W 080°11'0 0.0
2017-Aug-29 10:29N 25°47' W 080°11'0 0.0
2017-Aug-29 09:59N 25°47' W 080°11'0 0.0
2017-Aug-29 09:29N 25°47' W 080°11'0 0.0
2017-Aug-29 08:59N 25°47' W 080°11'0 0.0
2017-Aug-29 08:29N 25°47' W 080°11'0 0.0
2017-Aug-29 07:50N 25°47' W 080°11'0 0.0
2017-Aug-29 07:29N 25°47' W 080°11'0 0.0
2017-Aug-29 06:59N 25°47' W 080°11'0 0.0
2017-Aug-29 06:29N 25°47' W 080°11'0 0.0
2017-Aug-29 05:59N 25°47' W 080°11'0 0.0
2017-Aug-29 05:23N 25°47' W 080°11'0 0.0
2017-Aug-29 04:56N 25°47' W 080°11'0 0.0
2017-Aug-29 04:29N 25°47' W 080°11'0 0.0
2017-Aug-29 03:53N 25°47' W 080°11'0 0.0
2017-Aug-29 03:29N 25°47' W 080°11'0 0.0
2017-Aug-29 02:59N 25°47' W 080°11'0 0.0
2017-Aug-29 02:29N 25°47' W 080°11'0 0.0
2017-Aug-29 01:56N 25°47' W 080°11'0 0.0
2017-Aug-29 01:29N 25°47' W 080°11'0 0.0
2017-Aug-29 00:59N 25°47' W 080°11'0 0.0
2017-Aug-29 00:29N 25°47' W 080°11'0 0.0
2017-Aug-28 23:59N 25°47' W 080°11'0 0.0
2017-Aug-28 23:29N 25°47' W 080°11'0 0.0
2017-Aug-28 22:59N 25°47' W 080°11'  
Track history (hours):
 
Tides and Currents Weather Stations Pressure Air Temp Water Temp Dewpoint Dewpoint Depression Visibility Wind Speed Wind Dir Waves Ship Positions

Me

Last reported at 2017-Sep-07 22:30 UTC. Time now 2017-Nov-21 21:19 UTC.
Position N 25°34' W 080°04'.
Warning: this ship's position is months out of date.

; draft 2.5 m.

Type: Pleasure craft. MMSI: 538070984.

Date/timePositionNaut miles runAvg speedWind from/ knotsBaromVisibWave heightAir tempDewpointWater temp
2017-Sep-07 22:30N 25°34' W 080°04'5 9.4
2017-Sep-07 22:00N 25°39' W 080°03'5 9.3
2017-Sep-07 21:30N 25°43' W 080°04'4 7.5
2017-Sep-07 21:01N 25°47' W 080°04'5 9.0
2017-Sep-07 20:30N 25°52' W 080°04'5 9.7
2017-Sep-07 20:00N 25°57' W 080°04'511.0
2017-Sep-07 19:31N 26°02' W 080°04'4 7.5
2017-Sep-07 19:00N 26°06' W 080°06'3 5.3
2017-Sep-07 18:28N 26°03' W 080°07'3 6.0
2017-Sep-07 18:01N 26°00' W 080°07'3 5.3
2017-Sep-07 17:30N 25°58' W 080°07'0 0.5
2017-Sep-07 17:00N 25°58' W 080°08'0 0.0
2017-Sep-07 16:30N 25°58' W 080°08'0 0.0
2017-Sep-07 16:00N 25°58' W 080°08'0 0.0
2017-Sep-07 14:51N 25°58' W 080°08'0 0.0
2017-Sep-07 14:21N 25°58' W 080°08'0 0.0
2017-Sep-07 13:39N 25°58' W 080°08'0 0.0
2017-Sep-07 13:24N 25°58' W 080°08'0 0.0
2017-Sep-07 12:51N 25°58' W 080°08'0 0.0
2017-Sep-07 12:24N 25°58' W 080°08'0 0.0
2017-Sep-07 11:54N 25°58' W 080°08'0 0.0
2017-Sep-07 11:27N 25°58' W 080°08'0 0.0
2017-Sep-07 10:57N 25°58' W 080°08'0 0.0
2017-Sep-07 10:27N 25°58' W 080°08'0 0.0
2017-Sep-07 09:57N 25°58' W 080°08'0 0.0
2017-Sep-07 09:27N 25°58' W 080°08'0 0.0
2017-Sep-07 08:57N 25°58' W 080°08'0 0.0
2017-Sep-07 08:30N 25°58' W 080°08'0 0.0
2017-Sep-07 08:00N 25°58' W 080°08'0 0.0
2017-Sep-07 07:30N 25°58' W 080°08'0 0.0
2017-Sep-07 07:00N 25°58' W 080°08'0 0.0
2017-Sep-07 06:30N 25°58' W 080°08'0 0.0
2017-Sep-07 06:00N 25°58' W 080°08'0 0.0
2017-Sep-07 05:27N 25°58' W 080°08'0 0.0
2017-Sep-07 05:00N 25°58' W 080°08'0 0.0
2017-Sep-07 04:30N 25°58' W 080°08'0 0.0
2017-Sep-07 04:00N 25°58' W 080°08'0 0.0
2017-Sep-07 03:30N 25°58' W 080°08'0 0.0
2017-Sep-07 03:00N 25°58' W 080°08'0 0.0
2017-Sep-07 02:30N 25°58' W 080°08'0 0.0
2017-Sep-07 02:00N 25°58' W 080°08'0 0.0
2017-Sep-07 01:30N 25°58' W 080°08'0 0.0
2017-Sep-07 00:51N 25°58' W 080°08'0 0.0
2017-Sep-07 00:21N 25°58' W 080°08'0 0.0
2017-Sep-06 23:54N 25°58' W 080°08'0 0.0
2017-Sep-06 23:24N 25°58' W 080°08'0 0.0
2017-Sep-06 22:54N 25°58' W 080°08'0 0.0
2017-Sep-06 22:24N 25°58' W 080°08'0 0.1
2017-Sep-06 21:54N 25°58' W 080°08'0 0.0
2017-Sep-06 21:24N 25°58' W 080°08'0 0.0
2017-Sep-06 20:57N 25°58' W 080°08'0 0.0
2017-Sep-06 20:27N 25°58' W 080°08'0 0.1
2017-Sep-06 19:57N 25°58' W 080°08'0 0.0
2017-Sep-06 19:27N 25°58' W 080°08'0 0.0
2017-Sep-06 18:57N 25°58' W 080°08'0 0.0
2017-Sep-06 18:27N 25°58' W 080°08'0 0.0
2017-Sep-06 18:00N 25°58' W 080°08'0 0.0
2017-Sep-06 17:30N 25°58' W 080°08'0 0.0
2017-Sep-06 17:00N 25°58' W 080°08'0 0.0
2017-Sep-06 16:27N 25°58' W 080°08'0 0.0
2017-Sep-06 16:00N 25°58' W 080°08'0 0.0
2017-Sep-06 15:30N 25°58' W 080°08'0 0.0
2017-Sep-06 15:00N 25°58' W 080°08'0 0.0
2017-Sep-06 14:30N 25°58' W 080°08'0 0.0
2017-Sep-06 13:48N 25°58' W 080°08'0 0.0
2017-Sep-06 13:30N 25°58' W 080°08'0 0.0
2017-Sep-06 13:00N 25°58' W 080°08'0 0.0
2017-Sep-06 12:21N 25°58' W 080°08'0 0.0
2017-Sep-06 11:18N 25°58' W 080°08'0 0.0
2017-Sep-06 10:51N 25°58' W 080°08'0 0.0
2017-Sep-06 10:24N 25°58' W 080°08'0 0.0
2017-Sep-06 09:54N 25°58' W 080°08'0 0.0
2017-Sep-06 09:21N 25°58' W 080°08'0 0.0
2017-Sep-06 08:54N 25°58' W 080°08'0 0.0
2017-Sep-06 08:24N 25°58' W 080°08'0 0.0
2017-Sep-06 07:54N 25°58' W 080°08'0 0.0
2017-Sep-06 07:21N 25°58' W 080°08'0 0.0
2017-Sep-06 06:57N 25°58' W 080°08'0 0.0
2017-Sep-06 06:27N 25°58' W 080°08'0 0.0
2017-Sep-06 05:57N 25°58' W 080°08'0 0.0
2017-Sep-06 05:27N 25°58' W 080°08'0 0.0
2017-Sep-06 05:00N 25°58' W 080°08'0 0.0
2017-Sep-06 04:27N 25°58' W 080°08'0 0.0
2017-Sep-06 04:00N 25°58' W 080°08'0 0.0
2017-Sep-06 03:30N 25°58' W 080°08'0 0.0
2017-Sep-06 03:00N 25°58' W 080°08'0 0.0
2017-Sep-06 02:27N 25°58' W 080°08'0 0.0
2017-Sep-06 02:00N 25°58' W 080°08'0 0.0
2017-Sep-06 01:30N 25°58' W 080°08'0 0.0
2017-Sep-06 00:57N 25°58' W 080°08'0 0.0
2017-Sep-06 00:30N 25°58' W 080°08'0 0.0
2017-Sep-06 00:00N 25°58' W 080°08'1 2.2
2017-Sep-05 23:31N 25°59' W 080°07'2 4.8
2017-Sep-05 23:00N 26°01' W 080°07'1 2.3
2017-Sep-05 22:29N 26°02' W 080°07'2 3.2
2017-Sep-05 22:00N 26°04' W 080°07'2 3.4
2017-Sep-05 21:30N 26°05' W 080°07'4 7.6
2017-Sep-05 21:00N 26°02' W 080°05'510.9
2017-Sep-05 20:30N 25°57' W 080°05'5 9.7
2017-Sep-05 20:00N 25°52' W 080°06'611.8
2017-Sep-05 19:30N 25°46' W 080°06'4 7.2
2017-Sep-05 19:00N 25°47' W 080°10'1 2.2
2017-Sep-05 18:29N 25°47' W 080°11'0 0.0
2017-Sep-05 17:56N 25°47' W 080°11'0 0.0
2017-Sep-05 17:29N 25°47' W 080°11'0 0.0
2017-Sep-05 16:56N 25°47' W 080°11'0 0.0
2017-Sep-05 16:29N 25°47' W 080°11'0 0.0
2017-Sep-05 15:56N 25°47' W 080°11'0 0.0
2017-Sep-05 15:29N 25°47' W 080°11'0 0.0
2017-Sep-05 14:56N 25°47' W 080°11'0 0.0
2017-Sep-05 14:29N 25°47' W 080°11'0 0.0
2017-Sep-05 13:59N 25°47' W 080°11'0 0.0
2017-Sep-05 13:29N 25°47' W 080°11'0 0.0
2017-Sep-05 12:59N 25°47' W 080°11'0 0.0
2017-Sep-05 12:29N 25°47' W 080°11'0 0.0
2017-Sep-05 11:59N 25°47' W 080°11'0 0.0
2017-Sep-05 11:29N 25°47' W 080°11'0 0.0
2017-Sep-05 10:59N 25°47' W 080°11'0 0.0
2017-Sep-05 10:29N 25°47' W 080°11'0 0.0
2017-Sep-05 09:59N 25°47' W 080°11'0 0.0
2017-Sep-05 09:29N 25°47' W 080°11'0 0.0
2017-Sep-05 08:59N 25°47' W 080°11'0 0.0
2017-Sep-05 08:29N 25°47' W 080°11'0 0.0
2017-Sep-05 07:59N 25°47' W 080°11'0 0.0
2017-Sep-05 07:23N 25°47' W 080°11'0 0.0
2017-Sep-05 06:59N 25°47' W 080°11'0 0.0
2017-Sep-05 06:26N 25°47' W 080°11'0 0.0
2017-Sep-05 05:59N 25°47' W 080°11'0 0.0
2017-Sep-05 05:29N 25°47' W 080°11'0 0.0
2017-Sep-05 04:59N 25°47' W 080°11'0 0.0
2017-Sep-05 04:29N 25°47' W 080°11'0 0.0
2017-Sep-05 03:53N 25°47' W 080°11'0 0.0
2017-Sep-05 03:23N 25°47' W 080°11'0 0.0
2017-Sep-05 02:59N 25°47' W 080°11'0 0.0
2017-Sep-05 02:26N 25°47' W 080°11'0 0.0
2017-Sep-05 01:56N 25°47' W 080°11'0 0.0
2017-Sep-05 01:29N 25°47' W 080°11'0 0.0
2017-Sep-05 00:56N 25°47' W 080°11'0 0.0
2017-Sep-05 00:29N 25°47' W 080°11'0 0.0
2017-Sep-04 23:59N 25°47' W 080°11'0 0.0
2017-Sep-04 23:29N 25°47' W 080°11'0 0.0
2017-Sep-04 22:59N 25°47' W 080°11'0 0.0
2017-Sep-04 22:29N 25°47' W 080°11'0 0.0
2017-Sep-04 21:59N 25°47' W 080°11'0 0.0
2017-Sep-04 21:29N 25°47' W 080°11'0 0.0
2017-Sep-04 20:59N 25°47' W 080°11'0 0.0
2017-Sep-04 20:29N 25°47' W 080°11'0 0.0
2017-Sep-04 19:59N 25°47' W 080°11'0 0.0
2017-Sep-04 19:26N 25°47' W 080°11'0 0.0
2017-Sep-04 18:59N 25°47' W 080°11'0 0.0
2017-Sep-04 18:29N 25°47' W 080°11'0 0.0
2017-Sep-04 17:59N 25°47' W 080°11'0 0.0
2017-Sep-04 17:26N 25°47' W 080°11'0 0.0
2017-Sep-04 16:50N 25°47' W 080°11'0 0.0
2017-Sep-04 16:26N 25°47' W 080°11'0 0.0
2017-Sep-04 15:59N 25°47' W 080°11'0 0.0
2017-Sep-04 15:29N 25°47' W 080°11'0 0.0
2017-Sep-04 14:56N 25°47' W 080°11'0 0.0
2017-Sep-04 14:26N 25°47' W 080°11'0 0.0
2017-Sep-04 13:53N 25°47' W 080°11'0 0.0
2017-Sep-04 13:26N 25°47' W 080°11'0 0.0
2017-Sep-04 12:56N 25°47' W 080°11'0 0.0
2017-Sep-04 12:26N 25°47' W 080°11'0 0.0
2017-Sep-04 11:59N 25°47' W 080°11'0 0.0
2017-Sep-04 11:29N 25°47' W 080°11'0 0.0
2017-Sep-04 10:59N 25°47' W 080°11'0 0.0
2017-Sep-04 10:29N 25°47' W 080°11'0 0.0
2017-Sep-04 09:59N 25°47' W 080°11'0 0.0
2017-Sep-04 09:29N 25°47' W 080°11'0 0.0
2017-Sep-04 08:59N 25°47' W 080°11'0 0.0
2017-Sep-04 08:29N 25°47' W 080°11'0 0.0
2017-Sep-04 07:59N 25°47' W 080°11'0 0.0
2017-Sep-04 07:29N 25°47' W 080°11'0 0.0
2017-Sep-04 06:59N 25°47' W 080°11'0 0.0
2017-Sep-04 06:29N 25°47' W 080°11'0 0.0
2017-Sep-04 05:53N 25°47' W 080°11'0 0.0
2017-Sep-04 05:29N 25°47' W 080°11'0 0.0
2017-Sep-04 04:59N 25°47' W 080°11'0 0.0
2017-Sep-04 04:29N 25°47' W 080°11'0 0.0
2017-Sep-04 03:59N 25°47' W 080°11'0 0.0
2017-Sep-04 03:29N 25°47' W 080°11'0 0.0
2017-Sep-04 02:53N 25°47' W 080°11'0 0.0
2017-Sep-04 02:26N 25°47' W 080°11'0 0.0
2017-Sep-04 01:59N 25°47' W 080°11'0 0.0
2017-Sep-04 01:29N 25°47' W 080°11'0 0.0
2017-Sep-04 00:56N 25°47' W 080°11'0 0.0
2017-Sep-04 00:26N 25°47' W 080°11'0 0.0
2017-Sep-03 23:59N 25°47' W 080°11'0 0.0
2017-Sep-03 23:29N 25°47' W 080°11'0 0.0
2017-Sep-03 22:56N 25°47' W 080°11'0 0.0
2017-Sep-03 22:29N 25°47' W 080°11'0 0.0
2017-Sep-03 21:59N 25°47' W 080°11'0 0.0
2017-Sep-03 21:29N 25°47' W 080°11'0 0.0
2017-Sep-03 20:59N 25°47' W 080°11'0 0.0
2017-Sep-03 20:29N 25°47' W 080°11'0 0.0
2017-Sep-03 19:59N 25°47' W 080°11'0 0.0
2017-Sep-03 19:29N 25°47' W 080°11'0 0.0
2017-Sep-03 18:59N 25°47' W 080°11'0 0.0
2017-Sep-03 18:29N 25°47' W 080°11'0 0.0
2017-Sep-03 17:59N 25°47' W 080°11'0 0.0
2017-Sep-03 17:29N 25°47' W 080°11'0 0.0
2017-Sep-03 16:59N 25°47' W 080°11'0 0.0
2017-Sep-03 16:29N 25°47' W 080°11'0 0.0
2017-Sep-03 15:59N 25°47' W 080°11'0 0.0
2017-Sep-03 15:29N 25°47' W 080°11'0 0.0
2017-Sep-03 14:59N 25°47' W 080°11'0 0.0
2017-Sep-03 13:56N 25°47' W 080°11'0 0.0
2017-Sep-03 13:26N 25°47' W 080°11'0 0.0
2017-Sep-03 12:59N 25°47' W 080°11'0 0.0
2017-Sep-03 12:26N 25°47' W 080°11'0 0.0
2017-Sep-03 11:56N 25°47' W 080°11'0 0.0
2017-Sep-03 11:26N 25°47' W 080°11'0 0.0
2017-Sep-03 10:59N 25°47' W 080°11'0 0.0
2017-Sep-03 10:29N 25°47' W 080°11'0 0.0
2017-Sep-03 09:53N 25°47' W 080°11'0 0.0
2017-Sep-03 09:29N 25°47' W 080°11'0 0.0
2017-Sep-03 08:59N 25°47' W 080°11'0 0.0
2017-Sep-03 08:26N 25°47' W 080°11'0 0.0
2017-Sep-03 07:56N 25°47' W 080°11'0 0.0
2017-Sep-03 07:26N 25°47' W 080°11'0 0.0
2017-Sep-03 06:59N 25°47' W 080°11'0 0.0
2017-Sep-03 06:29N 25°47' W 080°11'0 0.0
2017-Sep-03 05:59N 25°47' W 080°11'0 0.0
2017-Sep-03 05:29N 25°47' W 080°11'0 0.0
2017-Sep-03 04:59N 25°47' W 080°11'0 0.0
2017-Sep-03 04:29N 25°47' W 080°11'0 0.0
2017-Sep-03 03:59N 25°47' W 080°11'0 0.0
2017-Sep-03 03:29N 25°47' W 080°11'0 0.0
2017-Sep-03 02:59N 25°47' W 080°11'0 0.0
2017-Sep-03 02:29N 25°47' W 080°11'0 0.0
2017-Sep-03 01:59N 25°47' W 080°11'0 0.0
2017-Sep-03 01:29N 25°47' W 080°11'0 0.0
2017-Sep-03 00:59N 25°47' W 080°11'0 0.0
2017-Sep-03 00:29N 25°47' W 080°11'0 0.0
2017-Sep-02 23:56N 25°47' W 080°11'0 0.0
2017-Sep-02 23:23N 25°47' W 080°11'0 0.0
2017-Sep-02 22:56N 25°47' W 080°11'0 0.0
2017-Sep-02 22:23N 25°47' W 080°11'0 0.0
2017-Sep-02 21:59N 25°47' W 080°11'0 0.0
2017-Sep-02 21:26N 25°47' W 080°11'0 0.0
2017-Sep-02 20:56N 25°47' W 080°11'0 0.0
2017-Sep-02 20:26N 25°47' W 080°11'0 0.0
2017-Sep-02 19:56N 25°47' W 080°11'0 0.0
2017-Sep-02 19:29N 25°47' W 080°11'0 0.0
2017-Sep-02 18:56N 25°47' W 080°11'0 0.0
2017-Sep-02 18:29N 25°47' W 080°11'0 0.0
2017-Sep-02 17:56N 25°47' W 080°11'0 0.0
2017-Sep-02 17:26N 25°47' W 080°11'0 0.0
2017-Sep-02 16:59N 25°47' W 080°11'0 0.0
2017-Sep-02 16:29N 25°47' W 080°11'0 0.0
2017-Sep-02 15:59N 25°47' W 080°11'0 0.0
2017-Sep-02 15:29N 25°47' W 080°11'0 0.0
2017-Sep-02 14:56N 25°47' W 080°11'0 0.0
2017-Sep-02 14:29N 25°47' W 080°11'0 0.0
2017-Sep-02 13:59N 25°47' W 080°11'0 0.0
2017-Sep-02 13:29N 25°47' W 080°11'0 0.0
2017-Sep-02 12:59N 25°47' W 080°11'0 0.0
2017-Sep-02 12:29N 25°47' W 080°11'0 0.0
2017-Sep-02 11:59N 25°47' W 080°11'0 0.0
2017-Sep-02 11:29N 25°47' W 080°11'0 0.0
2017-Sep-02 10:59N 25°47' W 080°11'0 0.0
2017-Sep-02 10:29N 25°47' W 080°11'0 0.0
2017-Sep-02 09:59N 25°47' W 080°11'0 0.0
2017-Sep-02 09:26N 25°47' W 080°11'0 0.0
2017-Sep-02 08:56N 25°47' W 080°11'0 0.0
2017-Sep-02 08:29N 25°47' W 080°11'0 0.0
2017-Sep-02 07:56N 25°47' W 080°11'0 0.0
2017-Sep-02 07:29N 25°47' W 080°11'0 0.0
2017-Sep-02 06:59N 25°47' W 080°11'0 0.0
2017-Sep-02 06:26N 25°47' W 080°11'0 0.0
2017-Sep-02 05:59N 25°47' W 080°11'0 0.0
2017-Sep-02 05:26N 25°47' W 080°11'0 0.0
2017-Sep-02 04:56N 25°47' W 080°11'0 0.0
2017-Sep-02 04:26N 25°47' W 080°11'0 0.0
2017-Sep-02 03:56N 25°47' W 080°11'0 0.0
2017-Sep-02 03:29N 25°47' W 080°11'0 0.0
2017-Sep-02 02:56N 25°47' W 080°11'0 0.0
2017-Sep-02 02:29N 25°47' W 080°11'0 0.0
2017-Sep-02 01:59N 25°47' W 080°11'0 0.0
2017-Sep-02 01:29N 25°47' W 080°11'0 0.0
2017-Sep-02 00:59N 25°47' W 080°11'0 0.0
2017-Sep-02 00:29N 25°47' W 080°11'0 0.0
2017-Sep-01 23:59N 25°47' W 080°11'0 0.0
2017-Sep-01 23:29N 25°47' W 080°11'0 0.0
2017-Sep-01 22:59N 25°47' W 080°11'0 0.0
2017-Sep-01 22:29N 25°47' W 080°11'0 0.0
2017-Sep-01 21:59N 25°47' W 080°11'0 0.0
2017-Sep-01 21:29N 25°47' W 080°11'0 0.0
2017-Sep-01 20:56N 25°47' W 080°11'0 0.0
2017-Sep-01 20:29N 25°47' W 080°11'0 0.0
2017-Sep-01 19:56N 25°47' W 080°11'0 0.0
2017-Sep-01 19:29N 25°47' W 080°11'0 0.0
2017-Sep-01 18:56N 25°47' W 080°11'0 0.0
2017-Sep-01 18:29N 25°47' W 080°11'0 0.0
2017-Sep-01 17:59N 25°47' W 080°11'0 0.0
2017-Sep-01 17:29N 25°47' W 080°11'0 0.0
2017-Sep-01 16:59N 25°47' W 080°11'0 0.0
2017-Sep-01 16:29N 25°47' W 080°11'0 0.0
2017-Sep-01 15:59N 25°47' W 080°11'0 0.0
2017-Sep-01 15:26N 25°47' W 080°11'0 0.0
2017-Sep-01 14:59N 25°47' W 080°11'0 0.0
2017-Sep-01 14:26N 25°47' W 080°11'0 0.0
2017-Sep-01 13:59N 25°47' W 080°11'0 0.0
2017-Sep-01 13:29N 25°47' W 080°11'0 0.0
2017-Sep-01 12:56N 25°47' W 080°11'0 0.0
2017-Sep-01 12:29N 25°47' W 080°11'0 0.0
2017-Sep-01 11:59N 25°47' W 080°11'0 0.0
2017-Sep-01 11:29N 25°47' W 080°11'0 0.0
2017-Sep-01 10:59N 25°47' W 080°11'0 0.0
2017-Sep-01 10:29N 25°47' W 080°11'0 0.0
2017-Sep-01 09:59N 25°47' W 080°11'0 0.0
2017-Sep-01 09:29N 25°47' W 080°11'0 0.0
2017-Sep-01 08:59N 25°47' W 080°11'0 0.0
2017-Sep-01 08:29N 25°47' W 080°11'0 0.0
2017-Sep-01 07:59N 25°47' W 080°11'0 0.0
2017-Sep-01 07:23N 25°47' W 080°11'0 0.0
2017-Sep-01 06:59N 25°47' W 080°11'0 0.0
2017-Sep-01 06:26N 25°47' W 080°11'0 0.0
2017-Sep-01 05:59N 25°47' W 080°11'0 0.0
2017-Sep-01 05:20N 25°47' W 080°11'0 0.0
2017-Sep-01 04:56N 25°47' W 080°11'0 0.0
2017-Sep-01 04:23N 25°47' W 080°11'0 0.0
2017-Sep-01 03:56N 25°47' W 080°11'0 0.0
2017-Sep-01 03:29N 25°47' W 080°11'0 0.0
2017-Sep-01 02:50N 25°47' W 080°11'0 0.0
2017-Sep-01 02:26N 25°47' W 080°11'0 0.0
2017-Sep-01 01:56N 25°47' W 080°11'0 0.0
2017-Sep-01 01:29N 25°47' W 080°11'0 0.0
2017-Sep-01 00:59N 25°47' W 080°11'0 0.0
2017-Sep-01 00:23N 25°47' W 080°11'0 0.0
2017-Aug-31 23:59N 25°47' W 080°11'0 0.0
2017-Aug-31 23:29N 25°47' W 080°11'0 0.0
2017-Aug-31 22:59N 25°47' W 080°11'0 0.0
2017-Aug-31 22:29N 25°47' W 080°11'0 0.0
2017-Aug-31 21:59N 25°47' W 080°11'0 0.0
2017-Aug-31 21:29N 25°47' W 080°11'0 0.0
2017-Aug-31 20:59N 25°47' W 080°11'0 0.0
2017-Aug-31 20:29N 25°47' W 080°11'0 0.0
2017-Aug-31 19:59N 25°47' W 080°11'0 0.0
2017-Aug-31 19:29N 25°47' W 080°11'0 0.0
2017-Aug-31 18:59N 25°47' W 080°11'0 0.0
2017-Aug-31 18:29N 25°47' W 080°11'0 0.0
2017-Aug-31 17:59N 25°47' W 080°11'0 0.0
2017-Aug-31 17:29N 25°47' W 080°11'0 0.0
2017-Aug-31 16:59N 25°47' W 080°11'0 0.0
2017-Aug-31 16:29N 25°47' W 080°11'0 0.0
2017-Aug-31 15:56N 25°47' W 080°11'0 0.0
2017-Aug-31 15:26N 25°47' W 080°11'0 0.0
2017-Aug-31 14:59N 25°47' W 080°11'0 0.0
2017-Aug-31 14:26N 25°47' W 080°11'0 0.0
2017-Aug-31 13:53N 25°47' W 080°11'0 0.0
2017-Aug-31 13:29N 25°47' W 080°11'0 0.0
2017-Aug-31 12:59N 25°47' W 080°11'0 0.0
2017-Aug-31 12:29N 25°47' W 080°11'0 0.0
2017-Aug-31 11:56N 25°47' W 080°11'0 0.0
2017-Aug-31 11:26N 25°47' W 080°11'0 0.0
2017-Aug-31 10:59N 25°47' W 080°11'0 0.0
2017-Aug-31 10:26N 25°47' W 080°11'0 0.0
2017-Aug-31 09:59N 25°47' W 080°11'0 0.0
2017-Aug-31 09:29N 25°47' W 080°11'0 0.0
2017-Aug-31 08:59N 25°47' W 080°11'0 0.0
2017-Aug-31 08:29N 25°47' W 080°11'0 0.0
2017-Aug-31 07:59N 25°47' W 080°11'0 0.0
2017-Aug-31 07:29N 25°47' W 080°11'0 0.0
2017-Aug-31 06:59N 25°47' W 080°11'0 0.0
2017-Aug-31 06:26N 25°47' W 080°11'0 0.0
2017-Aug-31 05:59N 25°47' W 080°11'0 0.0
2017-Aug-31 05:29N 25°47' W 080°11'0 0.0
2017-Aug-31 04:59N 25°47' W 080°11'0 0.0
2017-Aug-31 04:29N 25°47' W 080°11'0 0.0
2017-Aug-31 03:59N 25°47' W 080°11'0 0.0
2017-Aug-31 03:29N 25°47' W 080°11'0 0.0
2017-Aug-31 02:59N 25°47' W 080°11'0 0.0
2017-Aug-31 02:29N 25°47' W 080°11'0 0.0
2017-Aug-31 01:59N 25°47' W 080°11'0 0.0
2017-Aug-31 01:23N 25°47' W 080°11'0 0.0
2017-Aug-31 00:59N 25°47' W 080°11'0 0.0
2017-Aug-31 00:29N 25°47' W 080°11'0 0.0
2017-Aug-30 23:59N 25°47' W 080°11'0 0.0
2017-Aug-30 23:29N 25°47' W 080°11'0 0.0
2017-Aug-30 22:53N 25°47' W 080°11'0 0.0
2017-Aug-30 22:29N 25°47' W 080°11'0 0.0
2017-Aug-30 21:56N 25°47' W 080°11'0 0.0
2017-Aug-30 21:29N 25°47' W 080°11'0 0.0
2017-Aug-30 20:59N 25°47' W 080°11'0 0.0
2017-Aug-30 20:29N 25°47' W 080°11'0 0.0
2017-Aug-30 19:59N 25°47' W 080°11'0 0.0
2017-Aug-30 19:29N 25°47' W 080°11'0 0.0
2017-Aug-30 18:59N 25°47' W 080°11'0 0.0
2017-Aug-30 18:29N 25°47' W 080°11'0 0.0
2017-Aug-30 17:59N 25°47' W 080°11'0 0.0
2017-Aug-30 17:29N 25°47' W 080°11'0 0.0
2017-Aug-30 16:59N 25°47' W 080°11'0 0.0
2017-Aug-30 16:26N 25°47' W 080°11'0 0.0
2017-Aug-30 15:56N 25°47' W 080°11'0 0.0
2017-Aug-30 15:29N 25°47' W 080°11'0 0.0
2017-Aug-30 14:59N 25°47' W 080°11'0 0.0
2017-Aug-30 14:29N 25°47' W 080°11'0 0.0
2017-Aug-30 13:59N 25°47' W 080°11'0 0.0
2017-Aug-30 13:29N 25°47' W 080°11'0 0.0
2017-Aug-30 12:59N 25°47' W 080°11'0 0.0
2017-Aug-30 12:29N 25°47' W 080°11'0 0.0
2017-Aug-30 11:50N 25°47' W 080°11'0 0.0
2017-Aug-30 11:23N 25°47' W 080°11'0 0.0
2017-Aug-30 10:53N 25°47' W 080°11'0 0.0
2017-Aug-30 10:26N 25°47' W 080°11'0 0.0
2017-Aug-30 09:59N 25°47' W 080°11'0 0.0
2017-Aug-30 09:29N 25°47' W 080°11'0 0.0
2017-Aug-30 08:59N 25°47' W 080°11'0 0.0
2017-Aug-30 08:29N 25°47' W 080°11'0 0.0
2017-Aug-30 07:59N 25°47' W 080°11'0 0.0
2017-Aug-30 07:29N 25°47' W 080°11'0 0.0
2017-Aug-30 06:59N 25°47' W 080°11'0 0.0
2017-Aug-30 06:26N 25°47' W 080°11'0 0.0
2017-Aug-30 05:59N 25°47' W 080°11'0 0.0
2017-Aug-30 05:29N 25°47' W 080°11'0 0.0
2017-Aug-30 04:59N 25°47' W 080°11'0 0.0
2017-Aug-30 04:26N 25°47' W 080°11'0 0.0
2017-Aug-30 03:56N 25°47' W 080°11'0 0.0
2017-Aug-30 03:29N 25°47' W 080°11'0 0.0
2017-Aug-30 02:56N 25°47' W 080°11'0 0.0
2017-Aug-30 02:29N 25°47' W 080°11'0 0.0
2017-Aug-30 01:59N 25°47' W 080°11'0 0.0
2017-Aug-30 01:29N 25°47' W 080°11'0 0.0
2017-Aug-30 00:59N 25°47' W 080°11'0 0.0
2017-Aug-30 00:29N 25°47' W 080°11'0 0.0
2017-Aug-29 23:59N 25°47' W 080°11'0 0.0
2017-Aug-29 23:29N 25°47' W 080°11'0 0.0
2017-Aug-29 22:59N 25°47' W 080°11'0 0.0
2017-Aug-29 22:29N 25°47' W 080°11'0 0.0
2017-Aug-29 21:50N 25°47' W 080°11'0 0.0
2017-Aug-29 21:29N 25°47' W 080°11'0 0.0
2017-Aug-29 20:59N 25°47' W 080°11'0 0.0
2017-Aug-29 20:26N 25°47' W 080°11'0 0.0
2017-Aug-29 19:53N 25°47' W 080°11'0 0.0
2017-Aug-29 19:29N 25°47' W 080°11'0 0.0
2017-Aug-29 18:59N 25°47' W 080°11'0 0.0
2017-Aug-29 18:29N 25°47' W 080°11'0 0.0
2017-Aug-29 17:56N 25°47' W 080°11'0 0.0
2017-Aug-29 17:26N 25°47' W 080°11'0 0.0
2017-Aug-29 16:59N 25°47' W 080°11'0 0.0
2017-Aug-29 16:29N 25°47' W 080°11'0 0.0
2017-Aug-29 15:59N 25°47' W 080°11'0 0.0
2017-Aug-29 15:29N 25°47' W 080°11'0 0.0
2017-Aug-29 14:56N 25°47' W 080°11'0 0.0
2017-Aug-29 14:26N 25°47' W 080°11'0 0.0
2017-Aug-29 13:59N 25°47' W 080°11'0 0.0
2017-Aug-29 13:29N 25°47' W 080°11'0 0.0
2017-Aug-29 12:59N 25°47' W 080°11'0 0.0
2017-Aug-29 12:29N 25°47' W 080°11'0 0.0
2017-Aug-29 11:59N 25°47' W 080°11'0 0.0
2017-Aug-29 11:29N 25°47' W 080°11'0 0.0
2017-Aug-29 10:59N 25°47' W 080°11'0 0.0
2017-Aug-29 10:29N 25°47' W 080°11'0 0.0
2017-Aug-29 09:59N 25°47' W 080°11'0 0.0
2017-Aug-29 09:29N 25°47' W 080°11'0 0.0
2017-Aug-29 08:59N 25°47' W 080°11'0 0.0
2017-Aug-29 08:29N 25°47' W 080°11'0 0.0
2017-Aug-29 07:50N 25°47' W 080°11'0 0.0
2017-Aug-29 07:29N 25°47' W 080°11'0 0.0
2017-Aug-29 06:59N 25°47' W 080°11'0 0.0
2017-Aug-29 06:29N 25°47' W 080°11'0 0.0
2017-Aug-29 05:59N 25°47' W 080°11'0 0.0
2017-Aug-29 05:23N 25°47' W 080°11'0 0.0
2017-Aug-29 04:56N 25°47' W 080°11'0 0.0
2017-Aug-29 04:29N 25°47' W 080°11'0 0.0
2017-Aug-29 03:53N 25°47' W 080°11'0 0.0
2017-Aug-29 03:29N 25°47' W 080°11'0 0.0
2017-Aug-29 02:59N 25°47' W 080°11'0 0.0
2017-Aug-29 02:29N 25°47' W 080°11'0 0.0
2017-Aug-29 01:56N 25°47' W 080°11'0 0.0
2017-Aug-29 01:29N 25°47' W 080°11'0 0.0
2017-Aug-29 00:59N 25°47' W 080°11'0 0.0
2017-Aug-29 00:29N 25°47' W 080°11'0 0.0
2017-Aug-28 23:59N 25°47' W 080°11'0 0.0
2017-Aug-28 23:29N 25°47' W 080°11'0 0.0
2017-Aug-28 22:59N 25°47' W 080°11'  

Dump ship's entire track history